Time;durP1;ratioP1;P1;durP2;ratioP2;P2;SDS_P1;SDS_P2;PMS_P1;PMS_P2;Temp;Humidity;BMP_temperature;BMP_pressure;BME280_temperature;BME280_humidity;BME280_pressure;Samples;Min_cycle;Max_cycle;Signal;HPM_P1;HPM_P2
2022/01/13 00:00:52;;;;;;;30.50;18.42;;;;;;;;;;5018500;28;20033;-70
2022/01/13 00:03:37;;;;;;;25.88;17.58;;;;;;;;;;5006989;28;20468;-72
2022/01/13 00:06:23;;;;;;;31.25;20.38;;;;;;;;;;5021594;28;20267;-72
2022/01/13 00:09:08;;;;;;;26.67;17.55;;;;;;;;;;5013660;28;20041;-73
2022/01/13 00:11:55;;;;;;;27.55;18.08;;;;;;;;;;5014781;28;20338;-69
2022/01/13 00:14:56;;;;;;;31.10;18.55;;;;;;;;;;5023791;28;20080;-71
2022/01/13 00:18:03;;;;;;;29.15;18.85;;;;;;;;;;5020635;28;20056;-63
2022/01/13 00:23:49;;;;;;;27.88;17.63;;;;;;;;;;4987166;28;20026;-62
2022/01/13 00:26:35;;;;;;;24.30;17.35;;;;;;;;;;5012846;28;20104;-65
2022/01/13 00:29:26;;;;;;;25.88;17.35;;;;;;;;;;5032787;28;20030;-66
2022/01/13 00:32:13;;;;;;;28.05;18.05;;;;;;;;;;5016355;28;20416;-74
2022/01/13 00:34:59;;;;;;;28.85;18.13;;;;;;;;;;5007839;28;20033;-64
2022/01/13 00:37:44;;;;;;;31.17;19.00;;;;;;;;;;5010655;28;20033;-63
2022/01/13 00:40:29;;;;;;;30.13;18.95;;;;;;;;;;5027653;28;20081;-62
2022/01/13 00:43:15;;;;;;;24.92;16.77;;;;;;;;;;5015220;28;20033;-63
2022/01/13 00:46:00;;;;;;;27.23;16.73;;;;;;;;;;5013333;28;20037;-64
2022/01/13 00:48:46;;;;;;;31.30;18.67;;;;;;;;;;5019600;28;20033;-63
2022/01/13 00:51:31;;;;;;;29.17;19.70;;;;;;;;;;5019941;28;20703;-71
2022/01/13 00:54:16;;;;;;;26.88;16.23;;;;;;;;;;5003115;28;20029;-70
2022/01/13 00:57:02;;;;;;;27.45;18.23;;;;;;;;;;5019245;28;20045;-71
2022/01/13 00:59:47;;;;;;;30.60;20.05;;;;;;;;;;5014989;28;20025;-71
2022/01/13 01:02:32;;;;;;;28.48;18.73;;;;;;;;;;5027646;28;20040;-70
2022/01/13 01:05:17;;;;;;;28.15;18.27;;;;;;;;;;5018029;28;20060;-73
2022/01/13 01:08:04;;;;;;;30.55;19.83;;;;;;;;;;5012834;28;20095;-63
2022/01/13 01:10:52;;;;;;;29.38;19.48;;;;;;;;;;5028695;28;20029;-72
2022/01/13 01:13:39;;;;;;;33.77;18.97;;;;;;;;;;5014165;28;20021;-70
2022/01/13 01:16:26;;;;;;;27.58;19.10;;;;;;;;;;5003179;28;20029;-68
2022/01/13 01:19:12;;;;;;;29.13;19.05;;;;;;;;;;5014159;28;20035;-69
2022/01/13 01:22:56;;;;;;;30.63;19.42;;;;;;;;;;5030484;28;20504;-68
2022/01/13 01:27:59;;;;;;;27.48;17.98;;;;;;;;;;5015314;28;20427;-73
2022/01/13 01:30:47;;;;;;;28.60;18.92;;;;;;;;;;5007718;28;20041;-71
2022/01/13 01:33:34;;;;;;;33.38;20.27;;;;;;;;;;5016188;28;20120;-72
2022/01/13 01:36:19;;;;;;;30.67;20.20;;;;;;;;;;5013162;28;20037;-74
2022/01/13 01:39:06;;;;;;;36.22;20.02;;;;;;;;;;5016654;28;20448;-71
2022/01/13 01:41:52;;;;;;;33.22;19.80;;;;;;;;;;4996618;28;20038;-72
2022/01/13 01:44:42;;;;;;;28.67;19.73;;;;;;;;;;5018786;28;20048;-72
2022/01/13 01:47:28;;;;;;;34.58;21.15;;;;;;;;;;5044116;28;20644;-73
2022/01/13 01:50:18;;;;;;;31.45;18.58;;;;;;;;;;5030860;28;20488;-73
2022/01/13 01:53:04;;;;;;;32.28;21.48;;;;;;;;;;5001617;28;20026;-74
2022/01/13 01:55:49;;;;;;;33.53;21.00;;;;;;;;;;5014206;28;20113;-71
2022/01/13 01:58:36;;;;;;;31.33;20.27;;;;;;;;;;5013985;28;20205;-71
2022/01/13 02:01:21;;;;;;;30.55;19.42;;;;;;;;;;5043837;28;20040;-74
2022/01/13 02:04:06;;;;;;;29.60;20.77;;;;;;;;;;5016452;28;20041;-71
2022/01/13 02:06:56;;;;;;;29.50;19.02;;;;;;;;;;5030373;28;20048;-66
2022/01/13 02:09:43;;;;;;;31.98;20.23;;;;;;;;;;5020084;28;20104;-65
2022/01/13 02:12:43;;;;;;;31.88;21.40;;;;;;;;;;5013266;28;20026;-64
2022/01/13 02:15:32;;;;;;;34.17;23.08;;;;;;;;;;5015849;28;20380;-65
2022/01/13 02:18:17;;;;;;;30.67;19.83;;;;;;;;;;5010167;28;20448;-64
2022/01/13 02:21:04;;;;;;;29.42;20.20;;;;;;;;;;5021665;28;20053;-73
2022/01/13 02:23:49;;;;;;;32.92;21.05;;;;;;;;;;5014271;28;20029;-71
2022/01/13 02:26:34;;;;;;;30.40;19.92;;;;;;;;;;5014499;28;20159;-72
2022/01/13 02:29:20;;;;;;;31.75;21.33;;;;;;;;;;4988338;28;20043;-73
2022/01/13 02:32:05;;;;;;;30.92;20.80;;;;;;;;;;5045433;28;20308;-71
2022/01/13 02:34:50;;;;;;;32.72;21.58;;;;;;;;;;5012212;28;20112;-72
2022/01/13 02:37:36;;;;;;;32.50;21.17;;;;;;;;;;5017256;28;20564;-72
2022/01/13 02:40:21;;;;;;;35.67;22.17;;;;;;;;;;5001278;28;20355;-68
2022/01/13 02:43:06;;;;;;;33.42;21.85;;;;;;;;;;5009873;28;20140;-70
2022/01/13 02:48:49;;;;;;;33.10;22.80;;;;;;;;;;5030884;28;20025;-71
2022/01/13 02:51:35;;;;;;;32.08;22.10;;;;;;;;;;5012469;28;20033;-71
2022/01/13 02:54:21;;;;;;;33.40;21.63;;;;;;;;;;5028735;28;20048;-73
2022/01/13 02:57:06;;;;;;;31.73;22.17;;;;;;;;;;5028042;28;20025;-71
2022/01/13 02:59:51;;;;;;;33.55;23.38;;;;;;;;;;5026443;28;20511;-63
2022/01/13 03:02:36;;;;;;;35.38;24.02;;;;;;;;;;5031709;28;20033;-65
2022/01/13 03:05:22;;;;;;;38.40;24.08;;;;;;;;;;5005649;28;20053;-64
2022/01/13 03:08:08;;;;;;;33.35;23.50;;;;;;;;;;5007936;28;20037;-63
2022/01/13 03:10:53;;;;;;;34.58;24.30;;;;;;;;;;5017411;28;20048;-64
2022/01/13 03:13:38;;;;;;;34.25;23.23;;;;;;;;;;5018844;28;20075;-64
2022/01/13 03:16:23;;;;;;;36.53;24.58;;;;;;;;;;5025351;28;20035;-63
2022/01/13 03:19:09;;;;;;;35.90;22.95;;;;;;;;;;5027661;28;20220;-73
2022/01/13 03:21:55;;;;;;;34.20;22.15;;;;;;;;;;5010456;28;20021;-70
2022/01/13 03:24:40;;;;;;;33.30;22.63;;;;;;;;;;5016658;28;20112;-73
2022/01/13 03:27:33;;;;;;;37.55;23.55;;;;;;;;;;5016880;28;20037;-73
2022/01/13 03:30:19;;;;;;;34.13;22.27;;;;;;;;;;5002658;28;20288;-72
2022/01/13 03:33:06;;;;;;;35.88;22.90;;;;;;;;;;5017178;28;20028;-71
2022/01/13 03:35:51;;;;;;;33.00;21.92;;;;;;;;;;5017249;28;20380;-70
2022/01/13 03:38:36;;;;;;;31.38;21.35;;;;;;;;;;5020439;28;20115;-74
2022/01/13 03:41:22;;;;;;;31.55;20.95;;;;;;;;;;5009204;28;20068;-73
2022/01/13 03:44:16;;;;;;;31.55;21.17;;;;;;;;;;4998342;28;20386;-72
2022/01/13 03:47:02;;;;;;;31.55;20.00;;;;;;;;;;5020485;28;20033;-72
2022/01/13 03:49:47;;;;;;;34.67;22.30;;;;;;;;;;5019339;28;20029;-73
2022/01/13 03:52:35;;;;;;;31.75;20.52;;;;;;;;;;5010120;28;20041;-71
2022/01/13 03:55:23;;;;;;;33.70;21.67;;;;;;;;;;5024142;28;20045;-72
2022/01/13 03:58:47;;;;;;;32.40;22.67;;;;;;;;;;5021514;28;20030;-71
2022/01/13 04:01:41;;;;;;;29.90;19.42;;;;;;;;;;4982447;28;20023;-70
2022/01/13 04:04:30;;;;;;;32.08;21.50;;;;;;;;;;4968684;28;20030;-70
2022/01/13 04:07:20;;;;;;;31.50;21.80;;;;;;;;;;4994949;28;20088;-69
2022/01/13 04:10:06;;;;;;;34.40;22.15;;;;;;;;;;5029817;28;20038;-70
2022/01/13 04:12:51;;;;;;;34.05;22.42;;;;;;;;;;5020905;28;20407;-72
2022/01/13 04:15:46;;;;;;;33.25;23.13;;;;;;;;;;5015612;28;20547;-63
2022/01/13 04:18:31;;;;;;;28.52;19.80;;;;;;;;;;5011779;28;20444;-63
2022/01/13 04:21:17;;;;;;;31.88;20.80;;;;;;;;;;5028082;28;20029;-63
2022/01/13 04:24:03;;;;;;;29.35;19.63;;;;;;;;;;5029868;28;20040;-63
2022/01/13 04:26:49;;;;;;;29.88;20.30;;;;;;;;;;5015935;28;20112;-65
2022/01/13 04:29:37;;;;;;;30.63;20.92;;;;;;;;;;5022454;28;20029;-72
2022/01/13 04:32:22;;;;;;;35.78;22.88;;;;;;;;;;5013914;28;20037;-63
2022/01/13 04:35:08;;;;;;;32.60;23.27;;;;;;;;;;5013288;28;20365;-71
2022/01/13 04:37:53;;;;;;;32.53;22.13;;;;;;;;;;5020839;28;20035;-72
2022/01/13 04:40:44;;;;;;;30.45;19.83;;;;;;;;;;5022676;28;20072;-71
2022/01/13 04:43:30;;;;;;;37.88;21.73;;;;;;;;;;5027233;28;20438;-71
2022/01/13 04:46:15;;;;;;;28.27;20.27;;;;;;;;;;5020076;28;20064;-72
2022/01/13 04:49:01;;;;;;;32.15;20.88;;;;;;;;;;5021380;28;20025;-72
2022/01/13 04:51:47;;;;;;;29.13;20.48;;;;;;;;;;5023902;28;20084;-66
2022/01/13 04:54:32;;;;;;;32.65;20.58;;;;;;;;;;5015341;28;20087;-63
2022/01/13 04:57:18;;;;;;;29.15;19.77;;;;;;;;;;4999054;28;20068;-62
2022/01/13 05:00:04;;;;;;;27.73;19.80;;;;;;;;;;5019310;28;20479;-64
2022/01/13 05:02:50;;;;;;;35.63;21.40;;;;;;;;;;5021506;28;20108;-64
2022/01/13 05:05:35;;;;;;;28.70;20.25;;;;;;;;;;5002362;28;20029;-63
2022/01/13 05:08:20;;;;;;;26.77;19.58;;;;;;;;;;5024004;28;20552;-73
2022/01/13 05:11:05;;;;;;;31.33;21.27;;;;;;;;;;5007307;28;20034;-71
2022/01/13 05:13:51;;;;;;;32.72;21.27;;;;;;;;;;5013937;28;20098;-71
2022/01/13 05:16:56;;;;;;;31.67;22.05;;;;;;;;;;5026293;28;20037;-72
2022/01/13 05:19:57;;;;;;;30.52;21.70;;;;;;;;;;5011463;28;20037;-70
2022/01/13 05:22:43;;;;;;;32.75;21.58;;;;;;;;;;4999446;28;20045;-70
2022/01/13 05:25:28;;;;;;;33.75;23.20;;;;;;;;;;4997733;28;20084;-72
2022/01/13 05:28:13;;;;;;;33.60;22.88;;;;;;;;;;5009157;28;20096;-71
2022/01/13 05:30:59;;;;;;;33.28;23.58;;;;;;;;;;5012261;28;20108;-73
2022/01/13 05:33:44;;;;;;;31.75;19.42;;;;;;;;;;4995493;28;20052;-72
2022/01/13 05:36:29;;;;;;;33.85;22.45;;;;;;;;;;5012575;28;20024;-72
2022/01/13 05:39:14;;;;;;;32.38;22.42;;;;;;;;;;5031732;28;20079;-72
2022/01/13 05:42:00;;;;;;;32.05;19.85;;;;;;;;;;5012615;28;20108;-71
2022/01/13 05:44:46;;;;;;;28.48;20.48;;;;;;;;;;5025420;28;20022;-71
2022/01/13 05:47:31;;;;;;;34.03;22.38;;;;;;;;;;5013114;28;20091;-63
2022/01/13 05:50:18;;;;;;;28.73;19.92;;;;;;;;;;5022085;28;20394;-64
2022/01/13 05:53:04;;;;;;;31.85;22.05;;;;;;;;;;5014964;28;20037;-65
2022/01/13 05:55:49;;;;;;;32.65;21.52;;;;;;;;;;5025160;28;20030;-63
2022/01/13 05:58:34;;;;;;;33.83;22.98;;;;;;;;;;5017059;28;20029;-65
2022/01/13 06:01:20;;;;;;;30.90;21.70;;;;;;;;;;5013569;28;20034;-62
2022/01/13 06:04:05;;;;;;;33.28;23.25;;;;;;;;;;5014846;28;20083;-75
2022/01/13 06:06:50;;;;;;;36.15;24.00;;;;;;;;;;5019164;28;20081;-71
2022/01/13 06:09:35;;;;;;;34.10;21.58;;;;;;;;;;5019763;28;20030;-69
2022/01/13 06:12:31;;;;;;;32.28;21.70;;;;;;;;;;5007770;28;20485;-71
2022/01/13 06:15:18;;;;;;;31.25;21.55;;;;;;;;;;5026580;28;20056;-69
2022/01/13 06:18:09;;;;;;;33.78;22.55;;;;;;;;;;5008709;28;20472;-69
2022/01/13 06:20:54;;;;;;;31.75;22.65;;;;;;;;;;5002144;28;20142;-71
2022/01/13 06:23:39;;;;;;;34.00;21.92;;;;;;;;;;5031268;28;20029;-71
2022/01/13 06:26:24;;;;;;;31.83;21.75;;;;;;;;;;5019165;28;20334;-72
2022/01/13 06:29:10;;;;;;;37.67;24.00;;;;;;;;;;5009953;28;20037;-72
2022/01/13 06:31:56;;;;;;;29.20;21.75;;;;;;;;;;5016202;28;20087;-71
2022/01/13 06:34:41;;;;;;;28.02;20.02;;;;;;;;;;5014772;28;20045;-72
2022/01/13 06:37:26;;;;;;;30.23;20.23;;;;;;;;;;5020329;28;20112;-72
2022/01/13 06:40:12;;;;;;;31.83;21.55;;;;;;;;;;5009277;28;20036;-70
2022/01/13 06:42:57;;;;;;;30.45;21.90;;;;;;;;;;5023084;28;20036;-62
2022/01/13 06:45:43;;;;;;;34.97;22.67;;;;;;;;;;5012440;28;20065;-63
2022/01/13 06:48:28;;;;;;;30.17;20.70;;;;;;;;;;5010310;28;20037;-62
2022/01/13 06:51:13;;;;;;;31.98;22.08;;;;;;;;;;5017431;28;20034;-66
2022/01/13 06:53:59;;;;;;;35.67;22.88;;;;;;;;;;5010829;28;20029;-62
2022/01/13 06:56:44;;;;;;;33.58;21.13;;;;;;;;;;5023652;28;20037;-65
2022/01/13 06:59:29;;;;;;;36.17;23.63;;;;;;;;;;5017149;28;20218;-67
2022/01/13 07:02:15;;;;;;;32.75;22.23;;;;;;;;;;5000136;28;20038;-71
2022/01/13 07:05:00;;;;;;;31.70;21.35;;;;;;;;;;5015510;28;20033;-69
2022/01/13 07:07:45;;;;;;;32.90;20.33;;;;;;;;;;5017171;28;20048;-70
2022/01/13 07:10:30;;;;;;;35.38;24.23;;;;;;;;;;5021900;28;20026;-68
2022/01/13 07:13:16;;;;;;;30.88;21.48;;;;;;;;;;5019952;28;20755;-68
2022/01/13 07:16:02;;;;;;;32.42;22.73;;;;;;;;;;5017814;28;20037;-63
2022/01/13 07:18:48;;;;;;;31.50;20.33;;;;;;;;;;5024008;28;20102;-65
2022/01/13 07:21:33;;;;;;;35.03;24.33;;;;;;;;;;5023818;28;20041;-65
2022/01/13 07:24:18;;;;;;;34.85;23.10;;;;;;;;;;5022382;28;20095;-63
2022/01/13 07:27:04;;;;;;;30.98;21.55;;;;;;;;;;5024840;28;20480;-62
2022/01/13 07:29:49;;;;;;;33.22;22.20;;;;;;;;;;5011264;28;20043;-67
2022/01/13 07:32:34;;;;;;;30.65;21.15;;;;;;;;;;5026911;28;20041;-65
2022/01/13 07:35:19;;;;;;;35.10;23.60;;;;;;;;;;5018341;28;20021;-74
2022/01/13 07:38:05;;;;;;;30.58;22.60;;;;;;;;;;5003980;28;20033;-68
2022/01/13 07:40:50;;;;;;;29.05;21.00;;;;;;;;;;5031736;28;20037;-67
2022/01/13 07:43:35;;;;;;;30.75;20.42;;;;;;;;;;5017802;28;20020;-64
2022/01/13 07:46:22;;;;;;;35.08;22.42;;;;;;;;;;4997906;28;20032;-68
2022/01/13 07:49:07;;;;;;;37.08;22.17;;;;;;;;;;5025258;28;20528;-66
2022/01/13 07:51:52;;;;;;;30.08;20.58;;;;;;;;;;5023547;28;20071;-67
2022/01/13 07:54:37;;;;;;;30.50;21.27;;;;;;;;;;5021035;28;20130;-67
2022/01/13 07:57:23;;;;;;;31.23;19.98;;;;;;;;;;5017870;28;20174;-68
2022/01/13 08:00:09;;;;;;;29.63;20.75;;;;;;;;;;5010603;28;20491;-64
2022/01/13 08:02:55;;;;;;;33.10;22.30;;;;;;;;;;5021020;28;20269;-64
2022/01/13 08:05:40;;;;;;;34.25;21.38;;;;;;;;;;4991555;28;20029;-67
2022/01/13 08:08:25;;;;;;;30.23;20.25;;;;;;;;;;5011603;28;20148;-66
2022/01/13 08:11:11;;;;;;;31.55;21.73;;;;;;;;;;5027514;28;20107;-73
2022/01/13 08:13:56;;;;;;;36.28;21.55;;;;;;;;;;5023092;28;20060;-71
2022/01/13 08:16:44;;;;;;;33.53;21.60;;;;;;;;;;5022949;28;20060;-70
2022/01/13 08:19:48;;;;;;;30.60;20.30;;;;;;;;;;5021485;28;20021;-71
2022/01/13 08:22:33;;;;;;;29.45;20.52;;;;;;;;;;5038407;28;20419;-73
2022/01/13 08:25:19;;;;;;;35.35;22.02;;;;;;;;;;5018421;28;20033;-71
2022/01/13 08:28:05;;;;;;;34.05;22.08;;;;;;;;;;5026312;28;20029;-72
2022/01/13 08:30:50;;;;;;;34.67;21.85;;;;;;;;;;5020696;28;20032;-72
2022/01/13 08:33:36;;;;;;;30.13;20.48;;;;;;;;;;5011592;28;20114;-74
2022/01/13 08:36:21;;;;;;;29.30;20.23;;;;;;;;;;5026992;28;20069;-74
2022/01/13 08:39:06;;;;;;;29.10;19.38;;;;;;;;;;4993275;28;20504;-74
2022/01/13 08:41:52;;;;;;;31.85;22.17;;;;;;;;;;5021017;28;20041;-74
2022/01/13 08:44:37;;;;;;;28.88;19.40;;;;;;;;;;5015730;28;20036;-74
2022/01/13 08:47:23;;;;;;;35.92;21.42;;;;;;;;;;5032077;28;20483;-66
2022/01/13 08:50:08;;;;;;;35.97;23.38;;;;;;;;;;5027921;28;20036;-73
2022/01/13 08:52:54;;;;;;;33.65;22.40;;;;;;;;;;5021812;28;20025;-73
2022/01/13 08:55:39;;;;;;;34.13;20.35;;;;;;;;;;5011738;28;20033;-79
2022/01/13 08:58:24;;;;;;;30.05;20.40;;;;;;;;;;5006497;28;20049;-75
2022/01/13 09:01:10;;;;;;;29.33;20.10;;;;;;;;;;5005485;28;20030;-74
2022/01/13 09:03:55;;;;;;;38.35;23.73;;;;;;;;;;5018573;28;20032;-75
2022/01/13 09:06:40;;;;;;;32.05;20.63;;;;;;;;;;5012161;28;20123;-75
2022/01/13 09:09:25;;;;;;;32.00;20.08;;;;;;;;;;5032790;28;20481;-73
2022/01/13 09:12:11;;;;;;;31.00;20.10;;;;;;;;;;5004994;28;20076;-73
2022/01/13 09:15:02;;;;;;;29.17;19.25;;;;;;;;;;5011755;28;20469;-74
2022/01/13 09:17:52;;;;;;;33.53;21.05;;;;;;;;;;5018089;28;20499;-75
2022/01/13 09:20:38;;;;;;;31.88;21.48;;;;;;;;;;5014606;28;20047;-74
2022/01/13 09:23:23;;;;;;;30.98;21.40;;;;;;;;;;5023507;28;20029;-71
2022/01/13 09:26:08;;;;;;;28.48;19.17;;;;;;;;;;4999202;28;20140;-69
2022/01/13 09:28:54;;;;;;;35.35;20.58;;;;;;;;;;5015622;28;20060;-62
2022/01/13 09:31:40;;;;;;;30.85;20.08;;;;;;;;;;5001140;28;20030;-65
2022/01/13 09:34:25;;;;;;;30.48;21.15;;;;;;;;;;5013984;28;20030;-65
2022/01/13 09:37:11;;;;;;;29.30;19.83;;;;;;;;;;5032453;28;20120;-65
2022/01/13 09:39:57;;;;;;;29.02;20.00;;;;;;;;;;5019983;28;20032;-64
2022/01/13 09:42:43;;;;;;;33.05;21.33;;;;;;;;;;5012646;28;20033;-77
2022/01/13 09:45:29;;;;;;;29.13;20.45;;;;;;;;;;4983724;28;20061;-67
2022/01/13 09:48:14;;;;;;;35.38;22.63;;;;;;;;;;5004757;28;20047;-68
2022/01/13 09:50:59;;;;;;;33.92;22.20;;;;;;;;;;5019984;28;20554;-71
2022/01/13 09:53:44;;;;;;;33.85;21.55;;;;;;;;;;5018018;28;20048;-69
2022/01/13 09:56:32;;;;;;;32.60;21.85;;;;;;;;;;5023291;28;20415;-70
2022/01/13 09:59:17;;;;;;;30.02;21.25;;;;;;;;;;5029372;28;20484;-72
2022/01/13 10:02:02;;;;;;;32.67;22.80;;;;;;;;;;5017864;28;20654;-64
2022/01/13 10:04:49;;;;;;;33.35;21.90;;;;;;;;;;5019334;28;20477;-71
2022/01/13 10:07:41;;;;;;;33.55;21.33;;;;;;;;;;5016845;28;20064;-69
2022/01/13 10:10:31;;;;;;;28.27;19.08;;;;;;;;;;5016304;28;20106;-70
2022/01/13 10:13:28;;;;;;;24.70;16.70;;;;;;;;;;5020384;28;20060;-68
2022/01/13 10:16:23;;;;;;;32.55;21.50;;;;;;;;;;5013824;28;20033;-70
2022/01/13 10:19:24;;;;;;;30.27;19.45;;;;;;;;;;5021325;28;20112;-70
2022/01/13 10:22:33;;;;;;;29.27;19.55;;;;;;;;;;5017864;28;20030;-72
2022/01/13 10:25:25;;;;;;;28.48;20.45;;;;;;;;;;5017207;28;20064;-78
2022/01/13 10:28:18;;;;;;;27.55;18.98;;;;;;;;;;5024654;28;20021;-79
2022/01/13 10:31:04;;;;;;;28.33;19.05;;;;;;;;;;5017390;28;20034;-76
2022/01/13 10:33:49;;;;;;;26.58;18.15;;;;;;;;;;5008147;28;20034;-75
2022/01/13 10:36:35;;;;;;;28.27;18.95;;;;;;;;;;5028338;28;20114;-75
2022/01/13 10:39:20;;;;;;;24.38;17.90;;;;;;;;;;5011187;28;20356;-65
2022/01/13 10:42:43;;;;;;;30.30;18.77;;;;;;;;;;5016085;28;20067;-70
2022/01/13 10:45:21;;;;;;;26.20;18.13;;;;;;;;;;5023325;28;20119;-70
2022/01/13 10:48:08;;;;;;;30.27;19.63;;;;;;;;;;5018492;28;20503;-73
2022/01/13 10:50:58;;;;;;;27.70;17.75;;;;;;;;;;5018306;28;20048;-70
2022/01/13 10:53:43;;;;;;;30.02;19.23;;;;;;;;;;5026798;28;20123;-70
2022/01/13 10:56:28;;;;;;;29.42;19.55;;;;;;;;;;5019919;28;20041;-73
2022/01/13 10:59:32;;;;;;;25.83;17.13;;;;;;;;;;5002865;28;20112;-71
2022/01/13 11:02:18;;;;;;;25.40;16.35;;;;;;;;;;5027818;28;20048;-69
2022/01/13 11:05:04;;;;;;;27.27;17.90;;;;;;;;;;5016284;28;20037;-68
2022/01/13 11:07:49;;;;;;;31.38;17.48;;;;;;;;;;5005304;28;20030;-75
2022/01/13 11:10:35;;;;;;;19.58;14.73;;;;;;;;;;5031008;28;20029;-69
2022/01/13 11:13:21;;;;;;;23.73;16.63;;;;;;;;;;5026724;28;20139;-68
2022/01/13 11:16:07;;;;;;;24.13;17.45;;;;;;;;;;5025676;28;20099;-73
2022/01/13 11:18:52;;;;;;;22.42;18.67;;;;;;;;;;5020275;28;20032;-67
2022/01/13 11:21:38;;;;;;;23.83;19.92;;;;;;;;;;4991657;28;20060;-66
2022/01/13 11:24:23;;;;;;;22.35;18.70;;;;;;;;;;5008320;28;20033;-70
2022/01/13 11:27:09;;;;;;;22.40;19.10;;;;;;;;;;4986377;28;20103;-74
2022/01/13 11:29:56;;;;;;;21.65;19.38;;;;;;;;;;5029624;28;20029;-71
2022/01/13 11:32:42;;;;;;;22.67;20.15;;;;;;;;;;5022172;28;20551;-71
2022/01/13 11:35:29;;;;;;;18.95;15.43;;;;;;;;;;5019634;28;20087;-68
2022/01/13 11:38:16;;;;;;;37.33;34.35;;;;;;;;;;5010542;28;20037;-67
2022/01/13 11:41:05;;;;;;;31.30;28.70;;;;;;;;;;5016870;28;20026;-64
2022/01/13 11:43:50;;;;;;;21.52;19.23;;;;;;;;;;5034588;28;20033;-64
2022/01/13 11:46:43;;;;;;;19.27;13.15;;;;;;;;;;5018042;28;20611;-66
2022/01/13 11:49:56;;;;;;;23.63;14.65;;;;;;;;;;5015818;28;20394;-64
2022/01/13 11:52:44;;;;;;;19.08;15.05;;;;;;;;;;4999444;28;20026;-67
2022/01/13 11:55:33;;;;;;;22.38;14.95;;;;;;;;;;5013609;28;20038;-65
2022/01/13 11:58:22;;;;;;;21.85;15.35;;;;;;;;;;5019458;28;20021;-65
2022/01/13 12:01:08;;;;;;;1999.90;999.90;;;;;;;;;;5011104;28;20033;-66
2022/01/13 12:03:56;;;;;;;1999.90;999.90;;;;;;;;;;5015119;28;20033;-66
2022/01/13 12:06:46;;;;;;;1999.90;999.90;;;;;;;;;;5011383;28;20459;-67
2022/01/13 12:09:31;;;;;;;1999.90;999.90;;;;;;;;;;4987885;28;20144;-72
2022/01/13 12:12:28;;;;;;;1999.90;999.90;;;;;;;;;;5022648;28;20480;-70
2022/01/13 12:15:18;;;;;;;45.60;42.20;;;;;;;;;;5004556;28;20033;-70
2022/01/13 12:18:04;;;;;;;20.30;13.63;;;;;;;;;;5017953;28;20056;-70
2022/01/13 12:21:05;;;;;;;18.27;12.70;;;;;;;;;;5026362;28;20220;-70
2022/01/13 12:23:50;;;;;;;18.17;13.10;;;;;;;;;;5020959;28;20040;-71
2022/01/13 12:26:49;;;;;;;21.67;13.10;;;;;;;;;;5004735;28;20357;-71
2022/01/13 12:29:42;;;;;;;21.53;14.77;;;;;;;;;;5028778;28;20468;-69
2022/01/13 12:32:38;;;;;;;22.67;15.43;;;;;;;;;;4993398;28;20113;-68
2022/01/13 12:35:29;;;;;;;22.70;14.82;;;;;;;;;;5015061;28;20037;-70
2022/01/13 12:38:14;;;;;;;23.15;15.40;;;;;;;;;;5016190;28;20090;-70
2022/01/13 12:41:13;;;;;;;23.50;14.10;;;;;;;;;;4992102;28;20033;-68
2022/01/13 12:44:20;;;;;;;21.17;13.88;;;;;;;;;;5014061;28;20026;-68
2022/01/13 12:47:05;;;;;;;21.80;13.52;;;;;;;;;;5024013;28;20037;-75
2022/01/13 12:49:51;;;;;;;21.58;14.85;;;;;;;;;;5007331;28;20030;-73
2022/01/13 12:52:36;;;;;;;21.63;14.68;;;;;;;;;;4999669;28;20052;-72
2022/01/13 12:55:21;;;;;;;22.48;15.02;;;;;;;;;;5015932;28;20033;-71
2022/01/13 12:58:07;;;;;;;21.98;14.48;;;;;;;;;;5025730;28;20456;-71
2022/01/13 13:01:04;;;;;;;22.27;13.90;;;;;;;;;;5011050;28;20108;-69
2022/01/13 13:04:00;;;;;;;21.80;14.13;;;;;;;;;;5027942;28;20104;-69
2022/01/13 13:06:48;;;;;;;20.02;13.70;;;;;;;;;;5000780;28;20116;-64
2022/01/13 13:09:33;;;;;;;24.77;15.55;;;;;;;;;;5018827;28;20119;-70
2022/01/13 13:12:26;;;;;;;20.33;14.55;;;;;;;;;;5019738;28;20145;-69
2022/01/13 13:18:03;;;;;;;22.75;16.02;;;;;;;;;;5024808;28;20083;-71
2022/01/13 13:20:48;;;;;;;26.60;16.60;;;;;;;;;;5024050;28;20109;-70
2022/01/13 13:23:36;;;;;;;22.95;15.85;;;;;;;;;;5024327;28;20165;-70
2022/01/13 13:26:22;;;;;;;23.55;15.82;;;;;;;;;;5003794;28;20033;-81
2022/01/13 13:29:07;;;;;;;24.30;15.77;;;;;;;;;;5003599;28;20025;-70
2022/01/13 13:31:56;;;;;;;22.67;15.88;;;;;;;;;;5037160;28;20029;-71
2022/01/13 13:34:41;;;;;;;23.48;15.90;;;;;;;;;;5029211;28;20040;-71
2022/01/13 13:37:27;;;;;;;26.27;15.82;;;;;;;;;;5018804;28;20025;-70
2022/01/13 13:40:22;;;;;;;23.90;15.80;;;;;;;;;;5024988;28;20135;-71
2022/01/13 13:43:07;;;;;;;26.00;15.48;;;;;;;;;;5045342;28;20036;-65
2022/01/13 13:45:59;;;;;;;25.55;15.82;;;;;;;;;;5008324;28;20434;-63
2022/01/13 13:48:46;;;;;;;24.58;16.20;;;;;;;;;;5024577;28;20039;-64
2022/01/13 13:51:32;;;;;;;24.38;16.80;;;;;;;;;;5031513;28;20033;-63
2022/01/13 13:54:24;;;;;;;24.05;15.32;;;;;;;;;;5018857;28;20480;-63
2022/01/13 13:57:10;;;;;;;23.40;16.05;;;;;;;;;;5025218;28;20026;-67
2022/01/13 13:59:56;;;;;;;26.63;17.25;;;;;;;;;;5023187;28;20030;-62
2022/01/13 14:02:48;;;;;;;25.15;17.35;;;;;;;;;;5020938;28;20060;-72
2022/01/13 14:05:41;;;;;;;27.90;16.95;;;;;;;;;;5018922;28;20545;-66
2022/01/13 14:08:27;;;;;;;31.83;19.38;;;;;;;;;;5019899;28;20416;-64
2022/01/13 14:11:12;;;;;;;26.42;18.48;;;;;;;;;;5011138;28;20088;-65
2022/01/13 14:14:08;;;;;;;21.73;15.93;;;;;;;;;;5018282;28;20039;-65
2022/01/13 14:16:53;;;;;;;24.90;16.85;;;;;;;;;;5017928;28;20037;-67
2022/01/13 14:19:58;;;;;;;25.38;17.55;;;;;;;;;;5017124;28;20061;-71
2022/01/13 14:22:44;;;;;;;28.42;16.13;;;;;;;;;;5007187;28;20036;-71
2022/01/13 14:25:31;;;;;;;26.40;15.95;;;;;;;;;;5013327;28;20448;-72
2022/01/13 14:28:19;;;;;;;25.17;16.15;;;;;;;;;;5006927;28;20034;-74
2022/01/13 14:31:09;;;;;;;27.90;16.42;;;;;;;;;;5023825;28;20847;-72
2022/01/13 14:33:58;;;;;;;25.90;16.35;;;;;;;;;;5035949;28;20107;-70
2022/01/13 14:36:43;;;;;;;24.65;16.30;;;;;;;;;;5024540;28;20028;-71
2022/01/13 14:39:28;;;;;;;25.70;16.30;;;;;;;;;;5024339;28;20637;-71
2022/01/13 14:42:14;;;;;;;25.45;15.13;;;;;;;;;;5025574;28;20036;-65
2022/01/13 14:45:20;;;;;;;23.25;16.02;;;;;;;;;;5007929;28;20132;-67
2022/01/13 14:48:05;;;;;;;27.63;16.45;;;;;;;;;;5024253;28;20076;-69
2022/01/13 14:50:50;;;;;;;23.55;14.93;;;;;;;;;;5014688;28;20531;-65
2022/01/13 14:53:35;;;;;;;28.15;16.58;;;;;;;;;;5019464;28;20029;-65
2022/01/13 14:56:21;;;;;;;22.20;14.63;;;;;;;;;;5020771;28;20037;-67
2022/01/13 14:59:07;;;;;;;22.65;15.27;;;;;;;;;;5017956;28;20132;-66
2022/01/13 15:01:52;;;;;;;24.75;15.02;;;;;;;;;;5030947;28;20047;-64
2022/01/13 15:04:38;;;;;;;23.73;14.32;;;;;;;;;;5010494;28;20033;-63
2022/01/13 15:07:23;;;;;;;24.35;13.85;;;;;;;;;;5017184;28;20038;-63
2022/01/13 15:10:08;;;;;;;23.75;12.43;;;;;;;;;;5017298;28;20036;-67
2022/01/13 15:12:54;;;;;;;24.27;14.85;;;;;;;;;;5028486;28;20025;-67
2022/01/13 15:15:39;;;;;;;20.85;13.07;;;;;;;;;;5018365;28;20091;-74
2022/01/13 15:18:25;;;;;;;20.40;12.30;;;;;;;;;;5012171;28;20124;-74
2022/01/13 15:21:10;;;;;;;28.17;14.80;;;;;;;;;;5033353;28;20273;-74
2022/01/13 15:23:56;;;;;;;21.90;13.07;;;;;;;;;;5019333;28;20039;-75
2022/01/13 15:26:41;;;;;;;21.65;13.43;;;;;;;;;;5017502;28;20120;-76
2022/01/13 15:29:26;;;;;;;25.52;13.73;;;;;;;;;;5021528;28;20368;-75
2022/01/13 15:32:13;;;;;;;20.60;13.45;;;;;;;;;;5000708;28;20787;-74
2022/01/13 15:34:58;;;;;;;20.25;12.05;;;;;;;;;;5018790;28;20087;-66
2022/01/13 15:37:43;;;;;;;27.38;13.95;;;;;;;;;;5011409;28;20365;-67
2022/01/13 15:40:30;;;;;;;22.65;11.55;;;;;;;;;;5023014;28;20379;-64
2022/01/13 15:43:17;;;;;;;23.92;12.88;;;;;;;;;;4956045;28;20508;-65
2022/01/13 15:46:02;;;;;;;23.55;13.02;;;;;;;;;;4959511;28;20623;-65
2022/01/13 15:48:49;;;;;;;25.48;13.10;;;;;;;;;;4973976;28;20120;-64
2022/01/13 15:51:34;;;;;;;20.58;11.60;;;;;;;;;;4970590;28;20538;-63
2022/01/13 15:54:20;;;;;;;22.27;12.80;;;;;;;;;;4971200;28;20432;-70
2022/01/13 15:57:05;;;;;;;20.02;12.60;;;;;;;;;;4967756;28;20046;-70
2022/01/13 15:59:50;;;;;;;25.92;13.68;;;;;;;;;;4973151;28;20027;-71
2022/01/13 16:02:36;;;;;;;22.77;14.57;;;;;;;;;;4969106;28;20053;-70
2022/01/13 16:05:21;;;;;;;23.08;13.40;;;;;;;;;;4987084;28;20375;-71
2022/01/13 16:08:06;;;;;;;21.73;13.40;;;;;;;;;;4969679;28;20121;-72
2022/01/13 16:10:52;;;;;;;24.27;11.77;;;;;;;;;;4983000;28;20037;-72
2022/01/13 16:13:38;;;;;;;22.48;14.73;;;;;;;;;;4981122;28;20047;-74
2022/01/13 16:16:23;;;;;;;24.77;13.70;;;;;;;;;;5021033;28;20039;-73
2022/01/13 16:19:11;;;;;;;21.02;13.50;;;;;;;;;;5016366;28;20038;-72
2022/01/13 16:21:56;;;;;;;20.48;12.57;;;;;;;;;;5018989;28;20506;-74
2022/01/13 16:24:42;;;;;;;25.13;14.57;;;;;;;;;;5006634;28;20036;-74